createdAt,value
2022-10-16T00:01:07.490Z,16.39
2022-10-16T00:03:34.315Z,16.27
2022-10-16T00:06:02.003Z,16.20
2022-10-16T00:08:28.798Z,16.25
2022-10-16T00:11:00.467Z,16.03
2022-10-16T00:13:29.756Z,15.83
2022-10-16T00:15:56.747Z,15.82
2022-10-16T00:18:23.211Z,15.83
2022-10-16T00:20:49.712Z,16.24
2022-10-16T00:23:16.201Z,16.44
2022-10-16T00:25:42.632Z,16.37
2022-10-16T00:28:09.158Z,16.26
2022-10-16T00:30:38.786Z,16.40
2022-10-16T00:33:05.255Z,15.95
2022-10-16T00:35:31.844Z,16.35
2022-10-16T00:37:58.308Z,16.20
2022-10-16T00:40:24.718Z,16.14
2022-10-16T00:42:51.115Z,15.84
2022-10-16T00:45:17.608Z,15.99
2022-10-16T00:47:47.663Z,15.98
2022-10-16T00:50:19.043Z,15.46
2022-10-16T00:52:49.181Z,15.98
2022-10-16T00:55:15.786Z,16.06
2022-10-16T00:57:43.145Z,16.18
2022-10-16T01:00:12.364Z,15.88
2022-10-16T01:02:38.827Z,15.54
2022-10-16T01:05:07.293Z,15.53
2022-10-16T01:07:44.253Z,15.89
2022-10-16T01:10:21.395Z,16.12
2022-10-16T01:12:52.583Z,16.08
2022-10-16T01:15:25.999Z,16.05
2022-10-16T01:17:58.076Z,16.10
2022-10-16T01:20:29.975Z,16.03
2022-10-16T01:23:08.682Z,16.23
2022-10-16T01:25:56.963Z,16.15
2022-10-16T01:28:31.684Z,16.19
2022-10-16T01:31:00.484Z,16.26
2022-10-16T01:33:31.373Z,16.18
2022-10-16T01:36:03.548Z,16.54
2022-10-16T01:38:35.102Z,16.28
2022-10-16T01:41:05.491Z,16.16
2022-10-16T01:43:37.234Z,15.85
2022-10-16T01:46:04.082Z,16.03
2022-10-16T01:48:33.381Z,16.04
2022-10-16T01:51:06.404Z,16.16
2022-10-16T01:53:34.410Z,15.75
2022-10-16T01:56:03.051Z,16.09
2022-10-16T01:58:31.328Z,16.28
2022-10-16T02:00:59.212Z,16.10
2022-10-16T02:03:25.838Z,15.95
2022-10-16T02:05:54.876Z,16.37
2022-10-16T02:08:23.635Z,16.19
2022-10-16T02:10:50.168Z,16.15
2022-10-16T02:13:22.807Z,16.38
2022-10-16T02:15:49.333Z,16.27
2022-10-16T02:18:17.119Z,16.11
2022-10-16T02:20:49.674Z,16.13
2022-10-16T02:23:23.247Z,16.32
2022-10-16T02:25:51.527Z,15.64
2022-10-16T02:28:21.382Z,15.73
2022-10-16T02:30:51.298Z,15.97
2022-10-16T02:33:22.567Z,15.79
2022-10-16T02:35:50.256Z,15.67
2022-10-16T02:38:18.294Z,15.89
2022-10-16T02:40:46.653Z,15.68
2022-10-16T02:43:13.868Z,15.77
2022-10-16T02:45:40.418Z,15.88
2022-10-16T02:48:07.391Z,16.16
2022-10-16T02:50:35.184Z,16.20
2022-10-16T02:53:01.891Z,16.37
2022-10-16T02:55:28.393Z,16.13
2022-10-16T02:57:55.450Z,16.32
2022-10-16T03:00:22.355Z,16.01
2022-10-16T03:02:48.929Z,15.47
2022-10-16T03:05:15.625Z,15.18
2022-10-16T03:07:43.612Z,15.53
2022-10-16T03:10:10.094Z,15.63
2022-10-16T03:12:36.483Z,15.64
2022-10-16T03:15:05.353Z,15.60
2022-10-16T03:17:32.905Z,15.70
2022-10-16T03:19:59.327Z,15.76
2022-10-16T03:22:25.769Z,15.88
2022-10-16T03:24:53.517Z,15.78
2022-10-16T03:27:20.072Z,15.52
2022-10-16T03:29:46.463Z,15.88
2022-10-16T03:32:12.887Z,16.04
2022-10-16T03:34:39.428Z,15.68
2022-10-16T03:37:05.888Z,15.83
2022-10-16T03:39:32.374Z,15.87
2022-10-16T03:42:00.132Z,15.89
2022-10-16T03:44:26.597Z,15.75
2022-10-16T03:46:53.001Z,15.62
2022-10-16T03:49:19.408Z,15.44
2022-10-16T03:51:45.823Z,15.54
2022-10-16T03:54:12.216Z,15.56
2022-10-16T03:56:38.949Z,15.57
2022-10-16T03:59:06.746Z,15.72
2022-10-16T04:01:33.264Z,15.29
2022-10-16T04:03:59.748Z,15.78
2022-10-16T04:06:26.159Z,15.65
2022-10-16T04:08:52.596Z,15.71
2022-10-16T04:11:19.050Z,15.53
2022-10-16T04:13:45.505Z,15.73
2022-10-16T04:16:13.271Z,15.48
2022-10-16T04:18:39.668Z,15.50
2022-10-16T04:21:07.233Z,15.83
2022-10-16T04:23:33.824Z,15.54
2022-10-16T04:26:00.503Z,15.69
2022-10-16T04:28:27.019Z,15.64
2022-10-16T04:30:53.731Z,15.50
2022-10-16T04:33:21.543Z,15.48
2022-10-16T04:35:57.713Z,15.55
2022-10-16T04:38:24.202Z,15.78
2022-10-16T04:40:50.571Z,15.50
2022-10-16T04:43:17.097Z,15.42
2022-10-16T04:45:43.560Z,15.27
2022-10-16T04:48:09.989Z,15.29
2022-10-16T04:50:37.947Z,15.43
2022-10-16T04:53:04.370Z,14.97
2022-10-16T04:55:30.900Z,15.15
2022-10-16T04:57:57.292Z,15.57
2022-10-16T05:00:23.749Z,15.58
2022-10-16T05:02:50.734Z,15.26
2022-10-16T05:05:17.349Z,15.67
2022-10-16T05:07:45.101Z,15.12
2022-10-16T05:10:11.496Z,14.68
2022-10-16T05:12:37.951Z,15.11
2022-10-16T05:15:05.938Z,15.23
2022-10-16T05:17:32.374Z,15.13
2022-10-16T05:19:58.792Z,15.14
2022-10-16T05:22:25.241Z,15.27
2022-10-16T05:24:53.072Z,15.50
2022-10-16T05:27:19.480Z,15.59
2022-10-16T05:29:46.009Z,15.36
2022-10-16T05:32:12.442Z,15.39
2022-10-16T05:34:39.141Z,15.40
2022-10-16T05:37:05.960Z,15.73
2022-10-16T05:39:32.388Z,15.71
2022-10-16T05:42:00.169Z,15.30
2022-10-16T05:44:26.592Z,15.44
2022-10-16T05:46:53.019Z,15.90
2022-10-16T05:49:19.480Z,15.51
2022-10-16T05:51:45.902Z,15.40
2022-10-16T05:54:12.335Z,15.73
2022-10-16T05:56:38.857Z,15.52
2022-10-16T05:59:06.987Z,15.60
2022-10-16T06:01:33.957Z,15.74
2022-10-16T06:04:00.550Z,15.68
2022-10-16T06:06:28.287Z,15.67
2022-10-16T06:08:55.763Z,15.21
2022-10-16T06:11:23.736Z,15.07
2022-10-16T06:13:51.269Z,15.44
2022-10-16T06:16:19.857Z,15.00
2022-10-16T06:18:46.784Z,15.34
2022-10-16T06:21:16.764Z,14.99
2022-10-16T06:23:43.808Z,15.30
2022-10-16T06:26:13.014Z,15.10
2022-10-16T06:28:39.973Z,15.34
2022-10-16T06:31:08.777Z,15.15
2022-10-16T06:33:37.577Z,15.59
2022-10-16T06:36:05.518Z,15.58
2022-10-16T06:38:32.334Z,15.47
2022-10-16T06:40:59.384Z,16.04
2022-10-16T06:43:26.302Z,15.95
2022-10-16T06:45:53.315Z,15.94
2022-10-16T06:48:19.855Z,15.81
2022-10-16T06:50:57.654Z,16.07
2022-10-16T06:53:24.520Z,15.88
2022-10-16T06:55:51.899Z,15.64
2022-10-16T06:58:18.301Z,15.96
2022-10-16T07:00:44.732Z,16.16
2022-10-16T07:03:11.278Z,16.16
2022-10-16T07:05:38.886Z,16.18
2022-10-16T07:08:06.855Z,16.16
2022-10-16T07:10:33.662Z,16.39
2022-10-16T07:13:00.107Z,16.50
2022-10-16T07:15:27.492Z,16.68
2022-10-16T07:17:54.194Z,16.56
2022-10-16T07:20:20.846Z,17.15
2022-10-16T07:22:47.275Z,15.95
2022-10-16T07:25:15.300Z,16.26
2022-10-16T07:27:41.749Z,16.37
2022-10-16T07:30:09.221Z,15.72
2022-10-16T07:32:35.807Z,15.96
2022-10-16T07:35:02.308Z,15.98
2022-10-16T07:37:29.131Z,16.16
2022-10-16T07:39:55.867Z,16.41
2022-10-16T07:42:23.582Z,16.09
2022-10-16T07:44:50.009Z,16.03
2022-10-16T07:47:16.475Z,16.92
2022-10-16T07:49:42.897Z,16.99
2022-10-16T07:52:09.313Z,16.97
2022-10-16T07:54:35.723Z,16.63
2022-10-16T07:57:02.173Z,17.53
2022-10-16T07:59:29.935Z,17.45
2022-10-16T08:01:56.373Z,17.46
2022-10-16T08:04:22.808Z,16.94
2022-10-16T08:06:49.214Z,17.82
2022-10-16T08:09:15.704Z,17.83
2022-10-16T08:11:42.104Z,17.95
2022-10-16T08:14:08.501Z,18.02
2022-10-16T08:16:36.258Z,18.03
2022-10-16T08:19:02.962Z,18.01
2022-10-16T08:21:29.439Z,18.15
2022-10-16T08:23:57.262Z,17.51
2022-10-16T08:26:26.040Z,17.85
2022-10-16T08:28:52.551Z,17.22
2022-10-16T08:31:21.169Z,17.64
2022-10-16T08:33:49.330Z,17.79
2022-10-16T08:36:16.963Z,17.26
2022-10-16T08:38:43.612Z,17.29
2022-10-16T08:41:23.802Z,17.46
2022-10-16T08:44:20.926Z,17.27
2022-10-16T08:46:54.165Z,16.83
2022-10-16T08:49:22.199Z,16.82
2022-10-16T08:51:48.782Z,17.20
2022-10-16T08:54:26.908Z,17.53
2022-10-16T08:56:55.525Z,17.58
2022-10-16T08:59:21.922Z,17.71
2022-10-16T09:01:51.604Z,17.85
2022-10-16T09:04:55.622Z,17.93
2022-10-16T09:07:33.485Z,17.70
2022-10-16T09:10:18.790Z,17.63
2022-10-16T09:12:53.779Z,17.67
2022-10-16T09:15:29.761Z,17.73
2022-10-16T09:18:02.184Z,18.01
2022-10-16T09:20:39.671Z,17.65
2022-10-16T09:23:17.474Z,17.60
2022-10-16T09:25:48.505Z,17.71
2022-10-16T09:28:15.528Z,17.88
2022-10-16T09:30:42.111Z,17.47
2022-10-16T09:33:10.931Z,17.94
2022-10-16T09:35:41.516Z,18.09
2022-10-16T09:38:08.826Z,17.84
2022-10-16T09:40:38.823Z,18.29
2022-10-16T09:43:19.609Z,17.97
2022-10-16T09:45:55.056Z,18.03
2022-10-16T09:48:21.761Z,17.98
2022-10-16T09:50:58.396Z,17.91
2022-10-16T09:53:24.988Z,18.10
2022-10-16T09:55:52.814Z,18.49
2022-10-16T09:58:22.531Z,18.53
2022-10-16T10:00:53.962Z,18.76
2022-10-16T10:03:34.828Z,18.76
2022-10-16T10:06:15.628Z,19.08
2022-10-16T10:08:42.099Z,19.45
2022-10-16T10:11:11.572Z,19.45
2022-10-16T10:13:41.670Z,19.37
2022-10-16T10:16:08.155Z,19.15
2022-10-16T10:18:34.617Z,19.05
2022-10-16T10:23:31.481Z,19.44
2022-10-16T10:26:05.220Z,19.23
2022-10-16T10:28:50.466Z,19.20
2022-10-16T10:31:23.644Z,19.05
2022-10-16T10:33:56.701Z,19.31
2022-10-16T10:36:30.444Z,18.96
2022-10-16T10:38:59.872Z,19.47
2022-10-16T10:41:59.344Z,19.44
2022-10-16T10:44:38.306Z,19.82
2022-10-16T10:47:11.916Z,19.56
2022-10-16T10:49:49.780Z,19.21
2022-10-16T10:52:38.174Z,19.67
2022-10-16T10:55:14.320Z,19.10
2022-10-16T10:57:51.625Z,19.76
2022-10-16T11:00:23.491Z,20.03
2022-10-16T11:03:00.111Z,19.62
2022-10-16T11:05:41.338Z,19.00
2022-10-16T11:08:15.797Z,19.33
2022-10-16T11:10:49.811Z,19.57
2022-10-16T11:13:33.117Z,19.54
2022-10-16T11:16:04.380Z,19.67
2022-10-16T11:18:40.781Z,19.01
2022-10-16T11:21:11.027Z,19.34
2022-10-16T11:23:43.694Z,19.22
2022-10-16T11:26:17.733Z,19.44
2022-10-16T11:28:49.161Z,19.32
2022-10-16T11:31:21.300Z,19.83
2022-10-16T11:33:55.715Z,19.51
2022-10-16T11:36:26.915Z,19.49
2022-10-16T11:39:01.496Z,19.45
2022-10-16T11:41:33.008Z,19.65
2022-10-16T11:44:18.255Z,19.58
2022-10-16T11:47:00.704Z,19.42
2022-10-16T11:49:40.639Z,19.78
2022-10-16T11:52:16.146Z,19.57
2022-10-16T11:54:48.475Z,19.22
2022-10-16T11:57:19.170Z,19.61
2022-10-16T11:59:52.196Z,19.71
2022-10-16T12:02:33.620Z,19.52
2022-10-16T12:05:12.040Z,20.18
2022-10-16T12:07:45.685Z,20.16
2022-10-16T12:10:26.690Z,20.09
2022-10-16T12:12:54.744Z,20.17
2022-10-16T12:15:35.214Z,19.73
2022-10-16T12:18:22.566Z,19.86
2022-10-16T12:20:56.177Z,19.90
2022-10-16T12:23:22.884Z,19.65
2022-10-16T12:25:57.985Z,19.65
2022-10-16T12:28:28.938Z,19.89
2022-10-16T12:30:58.029Z,19.31
2022-10-16T12:33:27.375Z,19.55
2022-10-16T12:35:54.836Z,20.07
2022-10-16T12:38:26.203Z,20.43
2022-10-16T12:41:00.424Z,20.11
2022-10-16T12:43:37.135Z,20.23
2022-10-16T12:46:06.613Z,20.44
2022-10-16T12:48:48.178Z,20.29
2022-10-16T12:51:25.924Z,20.15
2022-10-16T12:54:02.271Z,20.20
2022-10-16T12:59:23.244Z,19.98
2022-10-16T13:02:03.584Z,20.39
2022-10-16T13:05:03.488Z,20.34
2022-10-16T13:07:45.408Z,20.51
2022-10-16T13:10:21.476Z,19.82
2022-10-16T13:13:07.308Z,19.99
2022-10-16T13:15:49.432Z,20.91
2022-10-16T13:18:20.340Z,20.73
2022-10-16T13:21:03.199Z,21.02
2022-10-16T13:23:37.526Z,20.72
2022-10-16T13:26:14.178Z,20.92
2022-10-16T13:28:42.261Z,21.43
2022-10-16T13:31:17.593Z,21.02
2022-10-16T13:33:48.477Z,21.25
2022-10-16T13:36:23.558Z,20.88
2022-10-16T13:39:01.096Z,20.80
2022-10-16T13:41:27.512Z,20.84
2022-10-16T13:43:57.605Z,20.75
2022-10-16T13:46:26.135Z,20.70
2022-10-16T13:48:59.825Z,20.09
2022-10-16T13:51:27.067Z,20.33
2022-10-16T13:53:55.684Z,20.53
2022-10-16T13:56:23.559Z,20.48
2022-10-16T13:59:00.589Z,20.01
2022-10-16T14:01:32.473Z,20.32
2022-10-16T14:04:04.847Z,19.82
2022-10-16T14:06:31.712Z,20.42
2022-10-16T14:09:02.608Z,20.45
2022-10-16T14:11:30.092Z,20.11
2022-10-16T14:13:56.760Z,19.72
2022-10-16T14:16:27.897Z,20.04
2022-10-16T14:18:58.734Z,19.96
2022-10-16T14:21:25.626Z,20.39
2022-10-16T14:23:52.165Z,20.11
2022-10-16T14:26:21.861Z,19.49
2022-10-16T14:28:50.208Z,20.01
2022-10-16T14:31:39.343Z,20.21
2022-10-16T14:34:06.152Z,20.30
2022-10-16T14:36:34.542Z,19.86
2022-10-16T14:39:04.370Z,20.11
2022-10-16T14:41:32.461Z,19.68
2022-10-16T14:44:03.250Z,19.99
2022-10-16T14:46:33.745Z,20.13
2022-10-16T14:49:13.593Z,20.12
2022-10-16T14:51:41.703Z,20.22
2022-10-16T14:54:09.577Z,19.61
2022-10-16T14:56:46.202Z,19.85
2022-10-16T14:59:17.409Z,19.97
2022-10-16T15:01:44.024Z,19.23
2022-10-16T15:04:13.580Z,19.45
2022-10-16T15:06:40.221Z,19.42
2022-10-16T15:09:06.733Z,19.75
2022-10-16T15:11:33.740Z,19.25
2022-10-16T15:14:00.190Z,19.51
2022-10-16T15:16:26.670Z,19.77
2022-10-16T15:18:53.056Z,19.40
2022-10-16T15:21:25.015Z,19.44
2022-10-16T15:23:51.488Z,19.12
2022-10-16T15:26:17.919Z,19.30
2022-10-16T15:28:44.828Z,19.19
2022-10-16T15:31:11.322Z,19.84
2022-10-16T15:33:39.901Z,19.56
2022-10-16T15:36:07.483Z,19.36
2022-10-16T15:38:35.682Z,18.97
2022-10-16T15:41:02.289Z,19.06
2022-10-16T15:43:29.011Z,19.08
2022-10-16T15:46:00.843Z,19.19
2022-10-16T15:48:27.648Z,19.27
2022-10-16T15:50:54.195Z,19.52
2022-10-16T15:53:20.645Z,19.32
2022-10-16T15:55:48.453Z,18.67
2022-10-16T15:58:14.935Z,19.07
2022-10-16T16:00:41.384Z,19.31
2022-10-16T16:03:07.856Z,19.43
2022-10-16T16:05:34.336Z,18.86
2022-10-16T16:08:00.792Z,19.02
2022-10-16T16:10:27.354Z,19.09
2022-10-16T16:12:55.175Z,19.15
2022-10-16T16:15:22.922Z,18.68
2022-10-16T16:17:49.356Z,18.70
2022-10-16T16:20:16.304Z,18.49
2022-10-16T16:22:42.725Z,18.48
2022-10-16T16:25:09.694Z,18.31
2022-10-16T16:27:36.263Z,18.28
2022-10-16T16:30:04.896Z,18.44
2022-10-16T16:32:31.525Z,18.11
2022-10-16T16:34:58.035Z,18.14
2022-10-16T16:37:24.731Z,17.76
2022-10-16T16:39:51.955Z,18.14
2022-10-16T16:42:18.455Z,17.92
2022-10-16T16:44:44.845Z,17.96
2022-10-16T16:47:12.604Z,17.55
2022-10-16T16:49:39.077Z,17.97
2022-10-16T16:52:05.483Z,17.83
2022-10-16T16:54:32.306Z,17.64
2022-10-16T16:56:58.714Z,17.54
2022-10-16T17:02:18.161Z,17.82
2022-10-16T17:04:44.635Z,17.74
2022-10-16T17:07:11.072Z,17.17
2022-10-16T17:09:37.520Z,17.41
2022-10-16T17:12:04.372Z,17.69
2022-10-16T17:14:30.869Z,17.68
2022-10-16T17:16:57.311Z,17.80
2022-10-16T17:30:49.317Z,17.55
2022-10-16T17:33:15.748Z,17.60
2022-10-16T17:35:45.613Z,17.72
2022-10-16T17:38:13.717Z,17.77
2022-10-16T17:40:40.875Z,17.85
2022-10-16T17:43:07.370Z,17.73
2022-10-16T17:45:37.626Z,17.27
2022-10-16T17:48:04.561Z,17.26
2022-10-16T17:50:31.024Z,16.62
2022-10-16T17:52:58.876Z,17.16
2022-10-16T17:55:27.221Z,17.38
2022-10-16T17:57:54.118Z,17.75
2022-10-16T18:00:20.745Z,17.41
2022-10-16T18:02:49.356Z,17.64
2022-10-16T18:05:16.295Z,17.40
2022-10-16T18:07:42.804Z,17.53
2022-10-16T18:10:11.841Z,17.57
2022-10-16T18:12:38.843Z,17.65
2022-10-16T18:15:06.615Z,17.40
2022-10-16T18:17:34.891Z,17.50
2022-10-16T18:20:01.417Z,17.57
2022-10-16T18:22:27.871Z,17.85
2022-10-16T18:24:54.311Z,17.58
2022-10-16T18:27:22.092Z,17.44
2022-10-16T18:29:48.514Z,17.43
2022-10-16T18:32:14.961Z,17.64
2022-10-16T18:34:41.386Z,17.54
2022-10-16T18:37:07.935Z,17.30
2022-10-16T18:39:34.366Z,17.38
2022-10-16T18:42:00.763Z,17.33
2022-10-16T18:44:28.647Z,17.60
2022-10-16T18:46:55.112Z,17.67
2022-10-16T18:49:21.552Z,17.67
2022-10-16T18:51:48.067Z,17.11
2022-10-16T18:54:14.515Z,17.07
2022-10-16T18:56:41.016Z,17.33
2022-10-16T18:59:08.650Z,17.27
2022-10-16T19:01:37.528Z,16.15
2022-10-16T19:04:06.190Z,16.83
2022-10-16T19:06:34.634Z,16.72
2022-10-16T19:09:01.084Z,16.76
2022-10-16T19:11:27.624Z,16.70
2022-10-16T19:13:56.127Z,16.90
2022-10-16T19:16:24.520Z,17.05
2022-10-16T19:18:54.385Z,17.24
2022-10-16T19:21:21.376Z,17.30
2022-10-16T19:23:51.623Z,16.97
2022-10-16T19:26:19.596Z,17.20
2022-10-16T19:28:46.514Z,17.04
2022-10-16T19:31:15.269Z,17.07
2022-10-16T19:33:42.032Z,17.07
2022-10-16T19:36:11.425Z,17.13
2022-10-16T19:38:38.342Z,17.21
2022-10-16T19:41:06.032Z,17.17
2022-10-16T19:43:32.444Z,17.26
2022-10-16T19:46:03.413Z,17.05
2022-10-16T19:48:29.995Z,17.02
2022-10-16T19:50:56.425Z,16.93
2022-10-16T19:53:25.255Z,16.97
2022-10-16T19:55:51.681Z,16.78
2022-10-16T19:58:18.099Z,17.07
2022-10-16T20:00:44.550Z,16.97
2022-10-16T20:03:10.996Z,16.98
2022-10-16T20:05:37.402Z,16.83
2022-10-16T20:08:03.962Z,16.91
2022-10-16T20:10:31.845Z,16.75
2022-10-16T20:12:58.244Z,16.72
2022-10-16T20:15:24.621Z,16.78
2022-10-16T20:20:43.863Z,17.14
2022-10-16T20:23:10.618Z,16.93
2022-10-16T20:25:39.436Z,17.07
2022-10-16T20:28:07.070Z,17.11
2022-10-16T20:30:34.386Z,17.45
2022-10-16T20:33:00.853Z,17.15
2022-10-16T20:35:27.289Z,17.14
2022-10-16T20:37:53.714Z,16.97
2022-10-16T20:40:20.123Z,17.08
2022-10-16T20:42:47.865Z,17.31
2022-10-16T20:45:14.267Z,17.31
2022-10-16T20:47:40.639Z,17.30
2022-10-16T20:50:07.687Z,17.52
2022-10-16T20:52:34.326Z,17.43
2022-10-16T20:55:00.874Z,17.23
2022-10-16T20:57:27.399Z,17.20
2022-10-16T20:59:55.319Z,17.35
2022-10-16T21:04:49.473Z,17.28
2022-10-16T21:07:16.152Z,17.17
2022-10-16T21:09:42.752Z,17.36
2022-10-16T21:12:09.479Z,17.31
2022-10-16T21:14:42.108Z,17.22
2022-10-16T21:17:10.395Z,16.87
2022-10-16T21:19:36.805Z,16.94
2022-10-16T21:22:03.253Z,16.97
2022-10-16T21:24:29.852Z,16.34
2022-10-16T21:26:56.304Z,16.94
2022-10-16T21:29:22.740Z,17.09
2022-10-16T21:31:49.161Z,17.28
2022-10-16T21:34:16.922Z,17.06
2022-10-16T21:36:43.367Z,16.94
2022-10-16T21:39:11.252Z,17.29
2022-10-16T21:41:38.078Z,17.23
2022-10-16T21:44:05.686Z,17.38
2022-10-16T21:46:34.965Z,17.16
2022-10-16T21:49:04.775Z,17.01
2022-10-16T21:51:34.086Z,17.23
2022-10-16T21:54:00.984Z,17.42
2022-10-16T21:56:27.964Z,17.22
2022-10-16T21:58:54.556Z,17.16
2022-10-16T22:01:23.157Z,16.85
2022-10-16T22:03:50.027Z,17.05
2022-10-16T22:06:18.774Z,16.86
2022-10-16T22:08:48.825Z,16.98
2022-10-16T22:11:21.502Z,17.16
2022-10-16T22:13:52.638Z,16.74
2022-10-16T22:16:23.116Z,16.02
2022-10-16T22:18:51.815Z,15.87
2022-10-16T22:21:18.456Z,15.41
2022-10-16T22:23:46.206Z,15.61
2022-10-16T22:26:13.276Z,15.85
2022-10-16T22:28:40.912Z,16.45
2022-10-16T22:31:10.047Z,16.40
2022-10-16T22:33:36.638Z,15.86
2022-10-16T22:36:05.112Z,16.03
2022-10-16T22:38:32.472Z,16.01
2022-10-16T22:41:04.422Z,15.98
2022-10-16T22:43:31.194Z,16.38
2022-10-16T22:46:02.219Z,16.75
2022-10-16T22:48:28.700Z,16.80
2022-10-16T22:50:55.248Z,16.12
2022-10-16T22:53:21.663Z,16.30
2022-10-16T22:55:48.068Z,16.52
2022-10-16T22:58:15.843Z,16.27
2022-10-16T23:00:42.866Z,16.31
2022-10-16T23:03:09.411Z,16.43
2022-10-16T23:05:38.525Z,16.58
2022-10-16T23:08:05.582Z,16.82
2022-10-16T23:10:32.021Z,16.04
2022-10-16T23:12:58.447Z,16.06
2022-10-16T23:15:26.184Z,15.92
2022-10-16T23:17:52.579Z,16.00
2022-10-16T23:20:19.052Z,16.25
2022-10-16T23:22:45.447Z,16.25
2022-10-16T23:25:11.862Z,15.67
2022-10-16T23:27:38.271Z,15.38
2022-10-16T23:30:05.465Z,15.34
2022-10-16T23:32:33.503Z,15.56
2022-10-16T23:34:59.903Z,15.98
2022-10-16T23:37:26.557Z,16.14
2022-10-16T23:39:52.960Z,15.93
2022-10-16T23:42:19.874Z,16.29
2022-10-16T23:44:46.310Z,16.26
2022-10-16T23:47:12.838Z,16.06
2022-10-16T23:49:40.605Z,15.98
2022-10-16T23:52:07.019Z,16.11
2022-10-16T23:54:33.454Z,16.37
2022-10-16T23:56:59.867Z,16.18
2022-10-16T23:59:26.280Z,16.21
